EastWest Aircraft Sales has several offices across the USA. See map for information on the nearest airstrips.

Naples Municipal Airport

Available data for KAPF from the past 2 hours
NAPLES MUNICIPAL, FL
Metar
KAPF 200753Z AUTO 04004KT 10SM CLR 26/24 A3001 RMK AO2 SLP162 T02560239

07:53 UTC

Wind: 40° 4kt

Visibility: 10 SM

Sky:

Temp: 26 deg C / 78.8 deg F

Dewpoint: 24 deg C / 75.2 deg F

Pressure: 30.01 inHg

TAF
KAPF 200521Z 2006/2106 VRB03KT P6SM SKC FM201400 11006KT P6SM SCT035 FM201600 15010KT P6SM SHRA VCTS SCT025CB BKN050 PROB30 2016/2022 4SM TSRA BKN035CB FM210100 08005KT P6SM SCT025 SCT045 BKN250

Hillsboro Airport

Available data for KHIO from the past 2 hours
HILLSBORO/PORTLD, OR
Metar
KHIO 200753Z AUTO 00000KT 10SM CLR 14/12 A2994 RMK AO2 SLP136 T01440122 402670122

07:53 UTC

Wind: 0° 0kt

Visibility: 10 SM

Sky:

Temp: 14 deg C / 57.2 deg F

Dewpoint: 12 deg C / 53.6 deg F

Pressure: 29.94 inHg

TAF
KHIO 200520Z 2006/2106 01005KT P6SM SKC FM201100 01003KT P6SM SCT025 FM201700 17003KT P6SM SCT040